Rio Blanco — D5BO9 — position and weather

sailwx.info

Track history (hours):
 
Tides and Currents Weather Stations Pressure Air Temp Water Temp Dewpoint Dewpoint Depression Visibility Wind Speed Wind Dir Waves Ship Positions

Rio Blanco

Last reported at 2016-Dec-07 15:34 UTC. Time now 2016-Dec-07 16:24 UTC.
Position N 53°59' E 008°23'.

Length 286 m; draft 11 m.

Type: Ship (hazmat cat A). MMSI: 636092395.

Date/timePositionNaut miles runAvg speedWind from/ knotsBaromVisibWave heightAir tempDewpointWater temp
2016-Dec-07 15:34N 53°59' E 008°23'1212.3
2016-Dec-07 14:33N 53°54' E 008°42'1211.9
2016-Dec-07 13:33N 53°51' E 009°01'1212.0
2016-Dec-07 12:33N 53°50' E 009°21'1414.4
2016-Dec-07 11:33N 53°37' E 009°33'1212.0
2016-Dec-07 10:33N 53°33' E 009°52'2 2.2
2016-Dec-07 09:33N 53°32' E 009°55'0 0.0
2016-Dec-07 08:31N 53°32' E 009°55'0 0.0
2016-Dec-07 07:31N 53°32' E 009°55'0 0.0
2016-Dec-07 06:31N 53°32' E 009°55'0 0.0
2016-Dec-07 05:31N 53°32' E 009°55'0 0.0
2016-Dec-07 04:31N 53°32' E 009°55'0 0.0
2016-Dec-07 03:31N 53°32' E 009°55'0 0.0
2016-Dec-07 02:31N 53°32' E 009°55'0 0.0
2016-Dec-07 01:31N 53°32' E 009°55'0 0.0
2016-Dec-07 00:31N 53°32' E 009°55'0 0.0
2016-Dec-06 23:31N 53°32' E 009°55'0 0.0
2016-Dec-06 22:31N 53°32' E 009°55'0 0.0
2016-Dec-06 21:31N 53°32' E 009°55'0 0.0
2016-Dec-06 20:31N 53°32' E 009°55'0 0.0
2016-Dec-06 18:31N 53°32' E 009°55'0 0.0
2016-Dec-06 17:31N 53°32' E 009°55'0 0.0
2016-Dec-06 16:31N 53°32' E 009°55'0 0.0
2016-Dec-06 15:31N 53°32' E 009°55'0 0.0
2016-Dec-06 14:31N 53°32' E 009°55'0 0.0
2016-Dec-06 13:31N 53°32' E 009°55'0 0.0
2016-Dec-06 12:31N 53°32' E 009°55'0 0.0
2016-Dec-06 11:31N 53°32' E 009°55'0 0.0
2016-Dec-06 10:31N 53°32' E 009°55'0 0.0
2016-Dec-06 09:31N 53°32' E 009°55'0 0.0
2016-Dec-06 08:31N 53°32' E 009°55'0 0.0
2016-Dec-06 07:33N 53°32' E 009°55'0 0.0
2016-Dec-06 06:33N 53°32' E 009°55'0 0.0
2016-Dec-06 05:33N 53°32' E 009°55'0 0.0
2016-Dec-06 04:34N 53°32' E 009°55'3 2.9
2016-Dec-06 03:34N 53°33' E 009°51'1212.3
2016-Dec-06 02:33N 53°38' E 009°32'1414.1
2016-Dec-06 01:33N 53°50' E 009°20'1313.1
2016-Dec-06 00:33N 53°51' E 008°58'1312.7
2016-Dec-05 23:33N 53°57' E 008°39'1716.5
2016-Dec-05 22:33N 53°59' E 008°11'4 3.6
2016-Dec-05 21:33N 54°03' E 008°09'1 0.8
2016-Dec-05 20:32N 54°02' E 008°10'0 0.0
2016-Dec-05 19:32N 54°02' E 008°10'0 0.0
2016-Dec-05 18:33N 54°03' E 008°10'0 0.0
2016-Dec-05 17:34N 54°03' E 008°10'0 0.2
2016-Dec-05 16:33N 54°03' E 008°10'6 5.9
2016-Dec-05 15:33N 54°01' E 008°01'1212.4
2016-Dec-05 14:33N 53°57' E 007°41'1312.7
2016-Dec-05 13:33N 53°54' E 007°20'1313.0
2016-Dec-05 12:34N 53°50' E 006°59'1313.3
2016-Dec-05 11:34N 53°47' E 006°37'1313.1
2016-Dec-05 10:33N 53°44' E 006°15'1110.7
2016-Dec-05 09:33N 53°41' E 005°58'2613.0
2016-Dec-05 07:33N 53°33' E 005°16'1212.5
2016-Dec-05 06:33N 53°28' E 004°57'1411.5
2016-Dec-05 05:22N 53°20' E 004°39'911.7
2016-Dec-05 04:33N 53°11' E 004°31'1211.5
2016-Dec-05 03:34N 53°01' E 004°21'1111.3
2016-Dec-05 02:33N 52°51' E 004°14'1111.1
2016-Dec-05 01:34N 52°42' E 004°03'1110.9
2016-Dec-05 00:33N 52°34' E 003°51'1110.7
2016-Dec-04 23:33N 52°27' E 003°38'1010.2
2016-Dec-04 22:33N 52°18' E 003°29'1110.9
2016-Dec-04 21:33N 52°07' E 003°25'1211.5
2016-Dec-04 20:34N 51°56' E 003°23'1211.7
2016-Dec-04 19:34N 51°45' E 003°15'1413.5
2016-Dec-04 18:33N 51°33' E 003°07'9 8.7
2016-Dec-04 17:34N 51°24' E 003°10'1514.8
2016-Dec-04 16:33N 51°26' E 003°33'9 9.4
2016-Dec-04 15:33N 51°21' E 003°47'10 9.8
2016-Dec-04 14:33N 51°26' E 004°01'9 8.7
2016-Dec-04 13:33N 51°22' E 004°13'5 5.0
2016-Dec-04 12:33N 51°17' E 004°16'0 0.0
2016-Dec-04 11:33N 51°17' E 004°16'0 0.0
2016-Dec-04 10:33N 51°17' E 004°16'0 0.0
2016-Dec-04 09:33N 51°17' E 004°16'0 0.0
2016-Dec-04 08:33N 51°17' E 004°16'0 0.0
2016-Dec-04 07:33N 51°17' E 004°16'0 0.0
2016-Dec-04 06:33N 51°17' E 004°16'0 0.0
2016-Dec-04 05:33N 51°17' E 004°16'0 0.0
2016-Dec-04 04:33N 51°17' E 004°16'0 0.0
2016-Dec-04 03:33N 51°17' E 004°16'0 0.0
2016-Dec-04 02:33N 51°17' E 004°16'0 0.0
2016-Dec-04 01:33N 51°17' E 004°16'0 0.0
2016-Dec-04 00:33N 51°17' E 004°16'0 0.0
2016-Dec-03 23:33N 51°17' E 004°16'0 0.0
2016-Dec-03 22:33N 51°17' E 004°16'0 0.0
2016-Dec-03 21:34N 51°17' E 004°16'0 0.0
2016-Dec-03 20:33N 51°17' E 004°16'0 0.0
2016-Dec-03 19:33N 51°17' E 004°16'0 0.0
2016-Dec-03 18:33N 51°17' E 004°16'0 0.0
2016-Dec-03 17:33N 51°17' E 004°16'0 0.0
2016-Dec-03 16:33N 51°17' E 004°16'0 0.0
2016-Dec-03 15:33N 51°17' E 004°16'0 0.0
2016-Dec-03 14:33N 51°17' E 004°16'0 0.0
2016-Dec-03 13:33N 51°17' E 004°16'0 0.0
2016-Dec-03 12:33N 51°17' E 004°16'0 0.0
2016-Dec-03 11:33N 51°17' E 004°16'0 0.0
2016-Dec-03 10:33N 51°17' E 004°16'0 0.0
2016-Dec-03 09:33N 51°17' E 004°16'0 0.0
2016-Dec-03 08:33N 51°17' E 004°16'0 0.0
2016-Dec-03 07:33N 51°17' E 004°16'0 0.0
2016-Dec-03 06:33N 51°17' E 004°16'0 0.0
2016-Dec-03 05:33N 51°17' E 004°16'2 1.8
2016-Dec-03 04:33N 51°19' E 004°16'8 7.9
2016-Dec-03 03:33N 51°22' E 004°04'9 8.6
2016-Dec-03 02:33N 51°21' E 003°51'1111.0
2016-Dec-03 01:33N 51°26' E 003°35'1515.5
2016-Dec-03 00:34N 51°24' E 003°10'1514.6
2016-Dec-02 23:34N 51°24' E 002°47'8 7.6
2016-Dec-02 22:33N 51°22' E 002°35'7 7.0
2016-Dec-02 21:33N 51°20' E 002°24'6 6.5
2016-Dec-02 20:34N 51°18' E 002°15'7 6.6
2016-Dec-02 19:33N 51°20' E 002°04'8 8.2
2016-Dec-02 18:34N 51°27' E 001°57'9 9.3
2016-Dec-02 17:33N 51°34' E 001°48'9 8.7
2016-Dec-02 16:33N 51°43' E 001°45'9 8.6
2016-Dec-02 15:33N 51°51' E 001°39'9 8.8
2016-Dec-02 14:33N 51°56' E 001°28'7 6.5
2016-Dec-02 13:33N 51°58' E 001°18'0 0.0
2016-Dec-02 12:32N 51°58' E 001°18'0 0.0
2016-Dec-02 11:32N 51°58' E 001°18'0 0.0
2016-Dec-02 10:32N 51°58' E 001°18'0 0.0
2016-Dec-02 09:32N 51°58' E 001°18'0 0.0
2016-Dec-02 08:32N 51°58' E 001°18'0 0.0
2016-Dec-02 07:32N 51°58' E 001°18'0 0.0
2016-Dec-02 06:32N 51°58' E 001°18'0 0.0
2016-Dec-02 05:32N 51°58' E 001°18'0 0.0
2016-Dec-02 04:32N 51°58' E 001°18'0 0.0
2016-Dec-02 03:32N 51°58' E 001°18'0 0.0
2016-Dec-02 02:32N 51°58' E 001°18'0 0.0
2016-Dec-02 01:32N 51°58' E 001°18'0 0.0
2016-Dec-02 00:32N 51°58' E 001°18'0 0.0
2016-Dec-01 23:33N 51°58' E 001°18'0 0.0
2016-Dec-01 22:33N 51°58' E 001°18'0 0.0
2016-Dec-01 21:33N 51°58' E 001°18'3 2.7
2016-Dec-01 20:33N 51°56' E 001°21'1111.4
2016-Dec-01 19:33N 51°51' E 001°38'4 3.9
2016-Dec-01 18:33N 51°51' E 001°44'4 4.3
2016-Dec-01 17:33N 51°50' E 001°51'3 2.7
2016-Dec-01 16:33N 51°47' E 001°50'8 7.5
2016-Dec-01 15:33N 51°39' E 001°49'1211.7
2016-Dec-01 14:33N 51°30' E 001°60'1312.8
2016-Dec-01 13:33N 51°17' E 001°55'1615.7
2016-Dec-01 12:33N 51°05' E 001°39'1616.1
2016-Dec-01 11:33N 50°52' E 001°25'1514.5
2016-Dec-01 10:33N 50°39' E 001°14'1715.4
2016-Dec-01 09:25N 50°30' E 000°50'1415.6
2016-Dec-01 08:32N 50°25' E 000°30'1515.4
2016-Dec-01 07:33N 50°21' E 000°07'1514.7
2016-Dec-01 06:33N 50°17' W 000°15'1413.9
2016-Dec-01 05:33N 50°13' W 000°36'1312.9
2016-Dec-01 04:33N 50°10' W 000°56'1211.9
2016-Dec-01 03:31N 50°07' W 001°14'1111.1
2016-Dec-01 02:34N 50°04' W 001°30'1110.9
2016-Dec-01 01:33N 50°01' W 001°47'1211.7
2016-Dec-01 00:33N 49°58' W 002°04'1413.4
2016-Nov-30 23:32N 49°55' W 002°25'1414.4
2016-Nov-30 22:33N 49°50' W 002°46'1514.7
2016-Nov-30 21:33N 49°45' W 003°07'1425.4
2016-Nov-30 21:00N 49°36' W 003°24'4 8.4 090 / 61032.910.8 11.0 4.213.0
2016-Nov-30 20:33N 49°39' W 003°28'1514.8
2016-Nov-30 19:33N 49°31' W 003°47'1515.0
2016-Nov-30 18:33N 49°24' W 004°07'1515.3
2016-Nov-30 17:33N 49°16' W 004°27'3617.1
2016-Nov-30 15:26N 48°57' W 005°15'1618.9
2016-Nov-30 14:33N 48°49' W 005°37'2319.0
2016-Nov-30 13:20N 48°28' W 005°53'1418.3
2016-Nov-30 12:33N 48°15' W 006°01'2417.0
2016-Nov-30 11:08N 47°54' W 006°18'1219.0
2016-Nov-30 10:29N 47°43' W 006°27'3422.8
2016-Nov-30 09:00N 47°12' W 006°48'17018.9 090 / 171028.810.8 12.0 6.713.0
2016-Nov-30 00:00N 44°42' W 008°42'32817.6 050 / 191023.910.8 13.2 7.414.0
2016-Nov-29 05:24N 39°18' W 009°51'1518.3
2016-Nov-29 04:33N 39°03' W 009°51'1818.4
2016-Nov-29 03:33N 38°44' W 009°51'1818.5
2016-Nov-29 02:33N 38°26' W 009°46'1818.3
2016-Nov-29 01:33N 38°08' W 009°40'1918.5
2016-Nov-29 00:33N 37°50' W 009°35'1526.3
2016-Nov-29 00:00N 37°36' W 009°30'4 9.1 1014.310.8 16.410.317.0
2016-Nov-28 23:32N 37°32' W 009°29'8416.1
2016-Nov-28 18:21N 36°30' W 008°18'14017.9
2016-Nov-28 10:33N 35°59' W 005°29'9 0.5
2016-Nov-27 17:34N 36°05' W 005°21'  
Track history (hours):
 
Tides and Currents Weather Stations Pressure Air Temp Water Temp Dewpoint Dewpoint Depression Visibility Wind Speed Wind Dir Waves Ship Positions

Rio Blanco

Last reported at 2016-Dec-07 15:34 UTC. Time now 2016-Dec-07 16:24 UTC.
Position N 53°59' E 008°23'.

Length 286 m; draft 11 m.

Type: Ship (hazmat cat A). MMSI: 636092395.

Date/timePositionNaut miles runAvg speedWind from/ knotsBaromVisibWave heightAir tempDewpointWater temp
2016-Dec-07 15:34N 53°59' E 008°23'1212.3
2016-Dec-07 14:33N 53°54' E 008°42'1211.9
2016-Dec-07 13:33N 53°51' E 009°01'1212.0
2016-Dec-07 12:33N 53°50' E 009°21'1414.4
2016-Dec-07 11:33N 53°37' E 009°33'1212.0
2016-Dec-07 10:33N 53°33' E 009°52'2 2.2
2016-Dec-07 09:33N 53°32' E 009°55'0 0.0
2016-Dec-07 08:31N 53°32' E 009°55'0 0.0
2016-Dec-07 07:31N 53°32' E 009°55'0 0.0
2016-Dec-07 06:31N 53°32' E 009°55'0 0.0
2016-Dec-07 05:31N 53°32' E 009°55'0 0.0
2016-Dec-07 04:31N 53°32' E 009°55'0 0.0
2016-Dec-07 03:31N 53°32' E 009°55'0 0.0
2016-Dec-07 02:31N 53°32' E 009°55'0 0.0
2016-Dec-07 01:31N 53°32' E 009°55'0 0.0
2016-Dec-07 00:31N 53°32' E 009°55'0 0.0
2016-Dec-06 23:31N 53°32' E 009°55'0 0.0
2016-Dec-06 22:31N 53°32' E 009°55'0 0.0
2016-Dec-06 21:31N 53°32' E 009°55'0 0.0
2016-Dec-06 20:31N 53°32' E 009°55'0 0.0
2016-Dec-06 18:31N 53°32' E 009°55'0 0.0
2016-Dec-06 17:31N 53°32' E 009°55'0 0.0
2016-Dec-06 16:31N 53°32' E 009°55'0 0.0
2016-Dec-06 15:31N 53°32' E 009°55'0 0.0
2016-Dec-06 14:31N 53°32' E 009°55'0 0.0
2016-Dec-06 13:31N 53°32' E 009°55'0 0.0
2016-Dec-06 12:31N 53°32' E 009°55'0 0.0
2016-Dec-06 11:31N 53°32' E 009°55'0 0.0
2016-Dec-06 10:31N 53°32' E 009°55'0 0.0
2016-Dec-06 09:31N 53°32' E 009°55'0 0.0
2016-Dec-06 08:31N 53°32' E 009°55'0 0.0
2016-Dec-06 07:33N 53°32' E 009°55'0 0.0
2016-Dec-06 06:33N 53°32' E 009°55'0 0.0
2016-Dec-06 05:33N 53°32' E 009°55'0 0.0
2016-Dec-06 04:34N 53°32' E 009°55'3 2.9
2016-Dec-06 03:34N 53°33' E 009°51'1212.3
2016-Dec-06 02:33N 53°38' E 009°32'1414.1
2016-Dec-06 01:33N 53°50' E 009°20'1313.1
2016-Dec-06 00:33N 53°51' E 008°58'1312.7
2016-Dec-05 23:33N 53°57' E 008°39'1716.5
2016-Dec-05 22:33N 53°59' E 008°11'4 3.6
2016-Dec-05 21:33N 54°03' E 008°09'1 0.8
2016-Dec-05 20:32N 54°02' E 008°10'0 0.0
2016-Dec-05 19:32N 54°02' E 008°10'0 0.0
2016-Dec-05 18:33N 54°03' E 008°10'0 0.0
2016-Dec-05 17:34N 54°03' E 008°10'0 0.2
2016-Dec-05 16:33N 54°03' E 008°10'6 5.9
2016-Dec-05 15:33N 54°01' E 008°01'1212.4
2016-Dec-05 14:33N 53°57' E 007°41'1312.7
2016-Dec-05 13:33N 53°54' E 007°20'1313.0
2016-Dec-05 12:34N 53°50' E 006°59'1313.3
2016-Dec-05 11:34N 53°47' E 006°37'1313.1
2016-Dec-05 10:33N 53°44' E 006°15'1110.7
2016-Dec-05 09:33N 53°41' E 005°58'2613.0
2016-Dec-05 07:33N 53°33' E 005°16'1212.5
2016-Dec-05 06:33N 53°28' E 004°57'1411.5
2016-Dec-05 05:22N 53°20' E 004°39'911.7
2016-Dec-05 04:33N 53°11' E 004°31'1211.5
2016-Dec-05 03:34N 53°01' E 004°21'1111.3
2016-Dec-05 02:33N 52°51' E 004°14'1111.1
2016-Dec-05 01:34N 52°42' E 004°03'1110.9
2016-Dec-05 00:33N 52°34' E 003°51'1110.7
2016-Dec-04 23:33N 52°27' E 003°38'1010.2
2016-Dec-04 22:33N 52°18' E 003°29'1110.9
2016-Dec-04 21:33N 52°07' E 003°25'1211.5
2016-Dec-04 20:34N 51°56' E 003°23'1211.7
2016-Dec-04 19:34N 51°45' E 003°15'1413.5
2016-Dec-04 18:33N 51°33' E 003°07'9 8.7
2016-Dec-04 17:34N 51°24' E 003°10'1514.8
2016-Dec-04 16:33N 51°26' E 003°33'9 9.4
2016-Dec-04 15:33N 51°21' E 003°47'10 9.8
2016-Dec-04 14:33N 51°26' E 004°01'9 8.7
2016-Dec-04 13:33N 51°22' E 004°13'5 5.0
2016-Dec-04 12:33N 51°17' E 004°16'0 0.0
2016-Dec-04 11:33N 51°17' E 004°16'0 0.0
2016-Dec-04 10:33N 51°17' E 004°16'0 0.0
2016-Dec-04 09:33N 51°17' E 004°16'0 0.0
2016-Dec-04 08:33N 51°17' E 004°16'0 0.0
2016-Dec-04 07:33N 51°17' E 004°16'0 0.0
2016-Dec-04 06:33N 51°17' E 004°16'0 0.0
2016-Dec-04 05:33N 51°17' E 004°16'0 0.0
2016-Dec-04 04:33N 51°17' E 004°16'0 0.0
2016-Dec-04 03:33N 51°17' E 004°16'0 0.0
2016-Dec-04 02:33N 51°17' E 004°16'0 0.0
2016-Dec-04 01:33N 51°17' E 004°16'0 0.0
2016-Dec-04 00:33N 51°17' E 004°16'0 0.0
2016-Dec-03 23:33N 51°17' E 004°16'0 0.0
2016-Dec-03 22:33N 51°17' E 004°16'0 0.0
2016-Dec-03 21:34N 51°17' E 004°16'0 0.0
2016-Dec-03 20:33N 51°17' E 004°16'0 0.0
2016-Dec-03 19:33N 51°17' E 004°16'0 0.0
2016-Dec-03 18:33N 51°17' E 004°16'0 0.0
2016-Dec-03 17:33N 51°17' E 004°16'0 0.0
2016-Dec-03 16:33N 51°17' E 004°16'0 0.0
2016-Dec-03 15:33N 51°17' E 004°16'0 0.0
2016-Dec-03 14:33N 51°17' E 004°16'0 0.0
2016-Dec-03 13:33N 51°17' E 004°16'0 0.0
2016-Dec-03 12:33N 51°17' E 004°16'0 0.0
2016-Dec-03 11:33N 51°17' E 004°16'0 0.0
2016-Dec-03 10:33N 51°17' E 004°16'0 0.0
2016-Dec-03 09:33N 51°17' E 004°16'0 0.0
2016-Dec-03 08:33N 51°17' E 004°16'0 0.0
2016-Dec-03 07:33N 51°17' E 004°16'0 0.0
2016-Dec-03 06:33N 51°17' E 004°16'0 0.0
2016-Dec-03 05:33N 51°17' E 004°16'2 1.8
2016-Dec-03 04:33N 51°19' E 004°16'8 7.9
2016-Dec-03 03:33N 51°22' E 004°04'9 8.6
2016-Dec-03 02:33N 51°21' E 003°51'1111.0
2016-Dec-03 01:33N 51°26' E 003°35'1515.5
2016-Dec-03 00:34N 51°24' E 003°10'1514.6
2016-Dec-02 23:34N 51°24' E 002°47'8 7.6
2016-Dec-02 22:33N 51°22' E 002°35'7 7.0
2016-Dec-02 21:33N 51°20' E 002°24'6 6.5
2016-Dec-02 20:34N 51°18' E 002°15'7 6.6
2016-Dec-02 19:33N 51°20' E 002°04'8 8.2
2016-Dec-02 18:34N 51°27' E 001°57'9 9.3
2016-Dec-02 17:33N 51°34' E 001°48'9 8.7
2016-Dec-02 16:33N 51°43' E 001°45'9 8.6
2016-Dec-02 15:33N 51°51' E 001°39'9 8.8
2016-Dec-02 14:33N 51°56' E 001°28'7 6.5
2016-Dec-02 13:33N 51°58' E 001°18'0 0.0
2016-Dec-02 12:32N 51°58' E 001°18'0 0.0
2016-Dec-02 11:32N 51°58' E 001°18'0 0.0
2016-Dec-02 10:32N 51°58' E 001°18'0 0.0
2016-Dec-02 09:32N 51°58' E 001°18'0 0.0
2016-Dec-02 08:32N 51°58' E 001°18'0 0.0
2016-Dec-02 07:32N 51°58' E 001°18'0 0.0
2016-Dec-02 06:32N 51°58' E 001°18'0 0.0
2016-Dec-02 05:32N 51°58' E 001°18'0 0.0
2016-Dec-02 04:32N 51°58' E 001°18'0 0.0
2016-Dec-02 03:32N 51°58' E 001°18'0 0.0
2016-Dec-02 02:32N 51°58' E 001°18'0 0.0
2016-Dec-02 01:32N 51°58' E 001°18'0 0.0
2016-Dec-02 00:32N 51°58' E 001°18'0 0.0
2016-Dec-01 23:33N 51°58' E 001°18'0 0.0
2016-Dec-01 22:33N 51°58' E 001°18'0 0.0
2016-Dec-01 21:33N 51°58' E 001°18'3 2.7
2016-Dec-01 20:33N 51°56' E 001°21'1111.4
2016-Dec-01 19:33N 51°51' E 001°38'4 3.9
2016-Dec-01 18:33N 51°51' E 001°44'4 4.3
2016-Dec-01 17:33N 51°50' E 001°51'3 2.7
2016-Dec-01 16:33N 51°47' E 001°50'8 7.5
2016-Dec-01 15:33N 51°39' E 001°49'1211.7
2016-Dec-01 14:33N 51°30' E 001°60'1312.8
2016-Dec-01 13:33N 51°17' E 001°55'1615.7
2016-Dec-01 12:33N 51°05' E 001°39'1616.1
2016-Dec-01 11:33N 50°52' E 001°25'1514.5
2016-Dec-01 10:33N 50°39' E 001°14'1715.4
2016-Dec-01 09:25N 50°30' E 000°50'1415.6
2016-Dec-01 08:32N 50°25' E 000°30'1515.4
2016-Dec-01 07:33N 50°21' E 000°07'1514.7
2016-Dec-01 06:33N 50°17' W 000°15'1413.9
2016-Dec-01 05:33N 50°13' W 000°36'1312.9
2016-Dec-01 04:33N 50°10' W 000°56'1211.9
2016-Dec-01 03:31N 50°07' W 001°14'1111.1
2016-Dec-01 02:34N 50°04' W 001°30'1110.9
2016-Dec-01 01:33N 50°01' W 001°47'1211.7
2016-Dec-01 00:33N 49°58' W 002°04'1413.4
2016-Nov-30 23:32N 49°55' W 002°25'1414.4
2016-Nov-30 22:33N 49°50' W 002°46'1514.7
2016-Nov-30 21:33N 49°45' W 003°07'1425.4
2016-Nov-30 21:00N 49°36' W 003°24'4 8.4 090 / 61032.910.8 11.0 4.213.0
2016-Nov-30 20:33N 49°39' W 003°28'1514.8
2016-Nov-30 19:33N 49°31' W 003°47'1515.0
2016-Nov-30 18:33N 49°24' W 004°07'1515.3
2016-Nov-30 17:33N 49°16' W 004°27'3617.1
2016-Nov-30 15:26N 48°57' W 005°15'1618.9
2016-Nov-30 14:33N 48°49' W 005°37'2319.0
2016-Nov-30 13:20N 48°28' W 005°53'1418.3
2016-Nov-30 12:33N 48°15' W 006°01'2417.0
2016-Nov-30 11:08N 47°54' W 006°18'1219.0
2016-Nov-30 10:29N 47°43' W 006°27'3422.8
2016-Nov-30 09:00N 47°12' W 006°48'17018.9 090 / 171028.810.8 12.0 6.713.0
2016-Nov-30 00:00N 44°42' W 008°42'32817.6 050 / 191023.910.8 13.2 7.414.0
2016-Nov-29 05:24N 39°18' W 009°51'1518.3
2016-Nov-29 04:33N 39°03' W 009°51'1818.4
2016-Nov-29 03:33N 38°44' W 009°51'1818.5
2016-Nov-29 02:33N 38°26' W 009°46'1818.3
2016-Nov-29 01:33N 38°08' W 009°40'1918.5
2016-Nov-29 00:33N 37°50' W 009°35'1526.3
2016-Nov-29 00:00N 37°36' W 009°30'4 9.1 1014.310.8 16.410.317.0
2016-Nov-28 23:32N 37°32' W 009°29'8416.1
2016-Nov-28 18:21N 36°30' W 008°18'14017.9
2016-Nov-28 10:33N 35°59' W 005°29'9 0.5
2016-Nov-27 17:34N 36°05' W 005°21'  

Dump ship's entire track history